Hovedside
METAR-TAF:

METAR-TAF

Lufthavner :

Ivalo lufthavn

Ivalo, Finland

breddegrad: 68-37N, lengdegrad: 027-25E, høyde over havet: 147 m

Gjeldene værobservasjon

Denne rapporten ble laget for 23 minutter siden, klokken 03:50 UTC
Vind 6 kt fra Nord-nordøst
Temperatur 9°C
Luftfuktighet 93%
Trykk 993 hPa
Sikt 10 km eller mer
Overskyet i en høyde av 400 ft

METAR: EFIV 230350Z AUTO 02006KT 9999 OVC004 09/08 Q0993

Tid: 07:13 (04:13 UTC)

Varsel

Denne rapporten ble laget for 16 timer og 43 minutter siden, klokken 11:30 UTC
Varsel gyldig fra 22. klokken 12 UTC til 22. klokken 16 UTC
Vind 10 kt fra Nord-nordøst
Sikt 10 km eller mer
Brutte skyer i en høyde av 3000 ft
Midlertidig
fra 22. klokken 14 UTC til 22. klokken 16 UTC
Vind 10 kt fra Nord-nordøst med vindkast opp mot 20 kt
Sikt: 3000 m
regn

TAF: EFIV 221130Z 2212/2216 02010KT 9999 BKN030 TEMPO 2214/2216 02010G20KT 3000 RA

Værobservasjoner og værvarsel for over 4000 flyplasser (METAR- og TAF-rapporter).

Tilgjengelige stasjoner er representert av de røde og gule prikkene på kartet.

Hold musepekeren over prikken for å se navnet på stasjonen.

Klikk så for å se værobservasjoner og -varsler.

For å forandre kartet kan du klikke på den grønne knappen med svart kryss for å zoome inn, på den grønne knappen med strek for å zoome ut, eller på de grønne pilene for å se tilstøtende kart.


METAR-TAF: